createdAt,value
2019-03-20T00:01:31.865Z,5.63
2019-03-20T00:04:02.107Z,5.63
2019-03-20T00:06:32.338Z,2.63
2019-03-20T00:09:02.564Z,6.00
2019-03-20T00:11:32.568Z,3.70
2019-03-20T00:14:02.765Z,3.40
2019-03-20T00:16:33.005Z,3.80
2019-03-20T00:19:03.133Z,5.10
2019-03-20T00:21:33.627Z,4.27
2019-03-20T00:24:03.762Z,3.60
2019-03-20T00:26:33.794Z,4.90
2019-03-20T00:29:04.241Z,5.50
2019-03-20T00:31:34.314Z,3.40
2019-03-20T00:34:04.702Z,7.13
2019-03-20T00:36:34.725Z,5.30
2019-03-20T00:39:06.179Z,3.73
2019-03-20T00:41:36.419Z,12.03
2019-03-20T00:44:06.461Z,2.30
2019-03-20T00:46:36.440Z,9.50
2019-03-20T00:49:06.400Z,10.40
2019-03-20T00:51:36.396Z,3.53
2019-03-20T00:54:07.015Z,15.20
2019-03-20T00:56:37.772Z,6.53
2019-03-20T00:59:07.932Z,10.90
2019-03-20T01:01:38.249Z,2.87
2019-03-20T01:04:08.230Z,5.70
2019-03-20T01:06:38.287Z,4.53
2019-03-20T01:09:08.812Z,8.77
2019-03-20T01:11:38.800Z,4.50
2019-03-20T01:14:08.820Z,3.17
2019-03-20T01:16:38.807Z,4.57
2019-03-20T01:19:08.803Z,3.67
2019-03-20T01:21:38.762Z,5.83
2019-03-20T01:24:09.236Z,10.90
2019-03-20T01:26:39.204Z,9.27
2019-03-20T01:29:09.229Z,8.63
2019-03-20T01:31:39.316Z,3.07
2019-03-20T01:34:09.340Z,3.00
2019-03-20T01:36:39.328Z,3.40
2019-03-20T01:39:09.448Z,10.73
2019-03-20T01:41:39.463Z,8.10
2019-03-20T01:44:09.458Z,3.60
2019-03-20T01:46:39.441Z,2.03
2019-03-20T01:49:09.470Z,2.90
2019-03-20T01:51:39.476Z,7.70
2019-03-20T01:54:09.668Z,3.87
2019-03-20T01:56:39.668Z,6.67
2019-03-20T01:59:09.674Z,10.73
2019-03-20T02:01:39.909Z,3.43
2019-03-20T02:04:10.664Z,4.40
2019-03-20T02:06:40.889Z,5.70
2019-03-20T02:09:11.351Z,6.33
2019-03-20T02:11:41.727Z,4.20
2019-03-20T02:14:11.829Z,7.23
2019-03-20T02:16:42.012Z,7.00
2019-03-20T02:19:13.060Z,3.20
2019-03-20T02:21:43.079Z,6.00
2019-03-20T02:24:13.050Z,2.73
2019-03-20T02:26:43.584Z,4.60
2019-03-20T02:29:13.632Z,5.70
2019-03-20T02:31:43.754Z,4.37
2019-03-20T02:34:13.957Z,6.30
2019-03-20T02:36:44.440Z,3.50
2019-03-20T02:39:14.480Z,5.23
2019-03-20T02:41:44.915Z,6.00
2019-03-20T02:44:15.068Z,4.27
2019-03-20T02:46:45.277Z,14.50
2019-03-20T02:49:15.313Z,6.47
2019-03-20T02:51:45.311Z,4.33
2019-03-20T02:54:15.653Z,6.53
2019-03-20T02:56:46.324Z,6.40
2019-03-20T02:59:16.404Z,2.10
2019-03-20T03:01:46.712Z,8.73
2019-03-20T03:04:16.888Z,6.33
2019-03-20T03:06:47.205Z,2.83
2019-03-20T03:09:17.458Z,3.23
2019-03-20T03:11:47.408Z,8.60
2019-03-20T03:14:17.486Z,5.20
2019-03-20T03:16:48.343Z,9.40
2019-03-20T03:19:18.852Z,2.27
2019-03-20T03:21:48.941Z,7.40
2019-03-20T03:24:19.009Z,6.53
2019-03-20T03:26:49.173Z,5.80
2019-03-20T03:29:19.145Z,4.40
2019-03-20T03:31:49.403Z,2.70
2019-03-20T03:34:19.545Z,4.10
2019-03-20T03:36:49.573Z,4.40
2019-03-20T03:39:19.535Z,5.37
2019-03-20T03:41:49.933Z,8.00
2019-03-20T03:44:20.074Z,4.27
2019-03-20T03:46:50.032Z,5.23
2019-03-20T03:49:20.164Z,8.23
2019-03-20T03:51:50.197Z,4.10
2019-03-20T03:54:20.428Z,6.00
2019-03-20T03:56:50.693Z,3.53
2019-03-20T03:59:21.144Z,7.33
2019-03-20T04:01:51.447Z,7.00
2019-03-20T04:04:21.584Z,2.13
2019-03-20T04:06:51.585Z,6.67
2019-03-20T04:09:21.613Z,4.87
2019-03-20T04:11:51.646Z,2.33
2019-03-20T04:14:21.852Z,3.47
2019-03-20T04:16:51.871Z,10.20
2019-03-20T04:19:21.906Z,3.37
2019-03-20T04:21:52.055Z,7.67
2019-03-20T04:24:22.768Z,9.10
2019-03-20T04:26:53.043Z,11.33
2019-03-20T04:29:23.077Z,3.57
2019-03-20T04:31:53.197Z,2.33
2019-03-20T04:34:23.771Z,5.00
2019-03-20T04:36:53.748Z,3.87
2019-03-20T04:39:23.772Z,5.60
2019-03-20T04:41:53.984Z,5.27
2019-03-20T04:44:24.619Z,5.13
2019-03-20T04:46:54.599Z,4.00
2019-03-20T04:49:24.665Z,3.93
2019-03-20T04:51:54.638Z,5.43
2019-03-20T04:54:24.650Z,6.67
2019-03-20T04:56:54.706Z,6.10
2019-03-20T04:59:24.735Z,6.00
2019-03-20T05:01:54.713Z,4.77
2019-03-20T05:04:24.757Z,2.30
2019-03-20T05:06:59.218Z,4.90
2019-03-20T05:09:26.381Z,39.13
2019-03-20T05:11:56.857Z,6.60
2019-03-20T05:14:26.831Z,3.20
2019-03-20T05:16:56.879Z,94.33
2019-03-20T05:19:26.854Z,28.80
2019-03-20T05:21:56.830Z,18.40
2019-03-20T05:24:27.016Z,20.60
2019-03-20T05:26:57.340Z,27.37
2019-03-20T05:29:27.477Z,12.63
2019-03-20T05:31:57.440Z,27.13
2019-03-20T05:34:27.425Z,21.37
2019-03-20T05:36:57.417Z,28.40
2019-03-20T05:39:27.431Z,36.73
2019-03-20T05:41:57.741Z,16.07
2019-03-20T05:44:27.696Z,106.03
2019-03-20T05:46:58.690Z,42.50
2019-03-20T05:49:28.739Z,41.77
2019-03-20T05:51:58.725Z,59.43
2019-03-20T05:54:29.218Z,80.57
2019-03-20T05:56:59.188Z,27.60
2019-03-20T05:59:29.182Z,23.37
2019-03-20T06:01:59.164Z,18.73
2019-03-20T06:04:29.829Z,47.43
2019-03-20T06:06:59.834Z,38.50
2019-03-20T06:09:29.981Z,35.70
2019-03-20T06:12:00.601Z,36.83
2019-03-20T06:14:30.606Z,87.23
2019-03-20T06:17:00.625Z,63.23
2019-03-20T06:19:30.660Z,40.50
2019-03-20T06:22:00.689Z,55.43
2019-03-20T06:24:30.747Z,19.03
2019-03-20T06:27:01.261Z,21.40
2019-03-20T06:29:31.302Z,34.83
2019-03-20T06:32:01.862Z,20.17
2019-03-20T06:34:32.224Z,13.50
2019-03-20T06:37:02.275Z,35.17
2019-03-20T06:39:32.329Z,42.27
2019-03-20T06:42:02.543Z,18.60
2019-03-20T06:44:32.579Z,19.37
2019-03-20T06:47:02.622Z,19.03
2019-03-20T06:49:32.646Z,23.67
2019-03-20T06:52:02.670Z,27.37
2019-03-20T06:54:33.238Z,39.53
2019-03-20T06:57:03.290Z,76.77
2019-03-20T07:00:11.899Z,8.87
2019-03-20T07:02:44.901Z,8.40
2019-03-20T07:05:46.639Z,44.07
2019-03-20T07:08:16.846Z,33.07
2019-03-20T07:11:07.113Z,23.90
2019-03-20T07:13:37.744Z,17.27
2019-03-20T07:16:07.846Z,20.63
2019-03-20T07:18:38.053Z,14.97
2019-03-20T07:21:08.304Z,10.10
2019-03-20T07:23:38.577Z,18.27
2019-03-20T07:26:08.618Z,17.10
2019-03-20T07:28:39.025Z,24.53
2019-03-20T07:31:15.251Z,16.50
2019-03-20T07:33:41.329Z,15.83
2019-03-20T07:36:11.600Z,15.60
2019-03-20T07:38:42.074Z,15.67
2019-03-20T07:41:12.088Z,17.40
2019-03-20T07:43:43.157Z,16.77
2019-03-20T07:46:13.115Z,10.13
2019-03-20T07:48:44.126Z,12.10
2019-03-20T07:51:14.777Z,11.27
2019-03-20T07:53:44.776Z,16.93
2019-03-20T07:56:15.021Z,15.43
2019-03-20T07:58:45.510Z,15.57
2019-03-20T08:01:15.946Z,17.80
2019-03-20T08:03:46.522Z,10.50
2019-03-20T08:06:17.026Z,9.70
2019-03-20T08:08:47.101Z,18.93
2019-03-20T08:11:18.234Z,11.63
2019-03-20T08:13:48.273Z,15.70
2019-03-20T08:16:18.828Z,7.87
2019-03-20T08:18:49.745Z,15.17
2019-03-20T08:21:19.901Z,11.23
2019-03-20T08:23:50.025Z,10.17
2019-03-20T08:26:20.443Z,8.50
2019-03-20T08:28:50.468Z,9.67
2019-03-20T08:31:20.712Z,6.03
2019-03-20T08:33:50.912Z,11.33
2019-03-20T08:36:21.288Z,8.83
2019-03-20T08:38:51.373Z,10.93
2019-03-20T08:41:21.769Z,12.67
2019-03-20T08:43:51.821Z,14.13
2019-03-20T08:46:21.947Z,18.93
2019-03-20T08:48:52.461Z,10.73
2019-03-20T08:51:22.488Z,12.00
2019-03-20T08:53:53.243Z,18.17
2019-03-20T08:56:23.336Z,10.93
2019-03-20T08:58:53.456Z,10.83
2019-03-20T09:01:28.346Z,5.93
2019-03-20T09:03:55.660Z,9.37
2019-03-20T09:06:25.664Z,12.67
2019-03-20T09:08:55.705Z,8.10
2019-03-20T09:11:25.985Z,14.27
2019-03-20T09:13:56.098Z,11.57
2019-03-20T09:16:27.390Z,9.60
2019-03-20T09:18:57.629Z,13.13
2019-03-20T09:21:28.190Z,12.73
2019-03-20T09:23:58.429Z,10.90
2019-03-20T09:26:28.948Z,9.83
2019-03-20T09:28:58.937Z,8.10
2019-03-20T09:31:28.877Z,8.33
2019-03-20T09:33:59.041Z,9.00
2019-03-20T09:36:29.068Z,6.17
2019-03-20T09:38:59.341Z,7.40
2019-03-20T09:41:29.365Z,6.83
2019-03-20T09:43:59.434Z,9.50
2019-03-20T09:46:29.502Z,16.90
2019-03-20T09:48:59.981Z,22.93
2019-03-20T09:51:29.957Z,15.93
2019-03-20T09:54:00.427Z,7.17
2019-03-20T09:56:30.459Z,19.17
2019-03-20T09:59:00.941Z,12.07
2019-03-20T10:01:31.064Z,11.27
2019-03-20T10:04:01.162Z,20.93
2019-03-20T10:06:31.810Z,9.07
2019-03-20T10:09:02.420Z,11.23
2019-03-20T10:11:32.472Z,6.70
2019-03-20T10:14:02.543Z,21.13
2019-03-20T10:16:33.254Z,13.90
2019-03-20T10:19:03.704Z,12.33
2019-03-20T10:21:33.720Z,8.20
2019-03-20T10:24:03.747Z,6.57
2019-03-20T10:26:34.613Z,11.80
2019-03-20T10:29:05.213Z,6.07
2019-03-20T10:31:35.909Z,9.00
2019-03-20T10:34:07.446Z,10.40
2019-03-20T10:36:37.476Z,12.70
2019-03-20T10:39:09.329Z,13.50
2019-03-20T10:41:39.339Z,11.40
2019-03-20T10:44:09.356Z,9.60
2019-03-20T10:46:39.354Z,6.43
2019-03-20T10:49:10.416Z,11.73
2019-03-20T10:51:40.833Z,11.73
2019-03-20T10:54:11.339Z,14.33
2019-03-20T10:56:42.663Z,7.30
2019-03-20T10:59:12.860Z,6.97
2019-03-20T11:01:43.075Z,5.00
2019-03-20T11:04:13.730Z,6.10
2019-03-20T11:06:44.225Z,7.63
2019-03-20T11:09:18.534Z,6.10
2019-03-20T11:11:47.254Z,15.47
2019-03-20T11:14:17.371Z,9.07
2019-03-20T11:16:47.754Z,11.60
2019-03-20T11:19:17.963Z,10.47
2019-03-20T11:21:48.037Z,20.53
2019-03-20T11:24:18.033Z,7.40
2019-03-20T11:26:48.630Z,13.83
2019-03-20T11:29:21.669Z,16.03
2019-03-20T11:31:50.400Z,8.40
2019-03-20T11:34:21.749Z,7.17
2019-03-20T11:36:51.903Z,11.07
2019-03-20T11:39:29.636Z,14.80
2019-03-20T11:41:54.627Z,7.13
2019-03-20T11:44:24.698Z,16.83
2019-03-20T11:46:54.678Z,18.33
2019-03-20T11:49:26.043Z,10.63
2019-03-20T11:51:56.058Z,13.00
2019-03-20T11:54:26.548Z,7.40
2019-03-20T11:56:56.535Z,5.20
2019-03-20T11:59:27.084Z,5.00
2019-03-20T12:01:57.091Z,4.30
2019-03-20T12:04:27.548Z,11.73
2019-03-20T12:06:58.207Z,12.07
2019-03-20T12:09:28.642Z,7.13
2019-03-20T12:11:58.637Z,13.70
2019-03-20T12:14:29.063Z,7.63
2019-03-20T12:16:59.595Z,13.43
2019-03-20T12:19:30.104Z,12.00
2019-03-20T12:22:00.162Z,11.30
2019-03-20T12:24:31.143Z,5.00
2019-03-20T12:27:01.222Z,14.90
2019-03-20T12:29:31.236Z,8.53
2019-03-20T12:32:02.576Z,7.23
2019-03-20T12:34:33.352Z,11.10
2019-03-20T12:37:03.313Z,11.30
2019-03-20T12:39:33.870Z,11.63
2019-03-20T12:42:06.647Z,13.50
2019-03-20T12:44:39.277Z,9.00
2019-03-20T12:47:09.895Z,9.20
2019-03-20T12:49:54.522Z,7.53
2019-03-20T12:52:25.987Z,7.20
2019-03-20T12:54:58.516Z,4.87
2019-03-20T12:57:36.821Z,13.30
2019-03-20T13:00:12.548Z,9.27
2019-03-20T13:02:43.432Z,6.17
2019-03-20T13:05:16.853Z,7.03
2019-03-20T13:07:48.103Z,7.83
2019-03-20T13:10:19.973Z,8.90
2019-03-20T13:12:50.494Z,14.90
2019-03-20T13:15:22.765Z,14.50
2019-03-20T13:17:53.464Z,5.53
2019-03-20T13:20:23.457Z,20.03
2019-03-20T13:22:57.387Z,10.27
2019-03-20T13:25:27.876Z,8.80
2019-03-20T13:27:57.851Z,8.47
2019-03-20T13:30:31.545Z,18.90
2019-03-20T13:33:02.025Z,8.67
2019-03-20T13:35:32.083Z,15.33
2019-03-20T13:38:03.152Z,10.57
2019-03-20T13:40:33.733Z,10.17
2019-03-20T13:43:05.063Z,6.70
2019-03-20T13:45:35.251Z,3.87
2019-03-20T13:48:05.843Z,9.83
2019-03-20T13:50:35.806Z,4.73
2019-03-20T13:53:06.835Z,13.50
2019-03-20T13:55:37.370Z,20.67
2019-03-20T13:58:07.843Z,10.30
2019-03-20T14:00:38.443Z,15.77
2019-03-20T14:03:08.916Z,10.57
2019-03-20T14:05:39.182Z,15.90
2019-03-20T14:08:09.979Z,15.87
2019-03-20T14:10:50.270Z,6.60
2019-03-20T14:13:13.879Z,15.43
2019-03-20T14:15:44.376Z,30.53
2019-03-20T14:18:14.926Z,25.87
2019-03-20T14:20:45.371Z,23.83
2019-03-20T14:23:16.035Z,9.67
2019-03-20T14:25:46.213Z,14.77
2019-03-20T14:28:16.706Z,14.20
2019-03-20T14:30:46.675Z,23.80
2019-03-20T14:33:17.586Z,16.83
2019-03-20T14:35:47.596Z,12.07
2019-03-20T14:38:17.671Z,13.27
2019-03-20T14:40:47.787Z,16.83
2019-03-20T14:43:18.132Z,19.57
2019-03-20T14:45:48.348Z,14.87
2019-03-20T14:48:18.596Z,11.23
2019-03-20T14:50:48.544Z,9.37
2019-03-20T14:53:18.655Z,12.67
2019-03-20T14:55:48.786Z,14.00
2019-03-20T14:58:18.849Z,15.40
2019-03-20T15:00:49.216Z,21.47
2019-03-20T15:03:19.179Z,28.87
2019-03-20T15:05:49.113Z,20.30
2019-03-20T15:08:19.543Z,16.30
2019-03-20T15:10:49.539Z,18.53
2019-03-20T15:13:19.835Z,19.80
2019-03-20T15:15:59.406Z,16.80
2019-03-20T15:18:29.407Z,9.30
2019-03-20T15:20:59.421Z,15.90
2019-03-20T15:23:29.740Z,18.07
2019-03-20T15:25:59.733Z,12.13
2019-03-20T15:28:30.187Z,17.40
2019-03-20T15:31:00.215Z,14.23
2019-03-20T15:33:30.265Z,24.77
2019-03-20T15:36:00.425Z,19.07
2019-03-20T15:38:30.447Z,13.90
2019-03-20T15:41:00.407Z,18.50
2019-03-20T15:43:30.363Z,15.33
2019-03-20T15:46:00.310Z,19.23
2019-03-20T15:48:30.247Z,31.87
2019-03-20T15:51:00.468Z,25.83
2019-03-20T15:53:30.411Z,14.33
2019-03-20T15:56:00.432Z,16.30
2019-03-20T15:58:30.464Z,15.70
2019-03-20T16:01:00.619Z,13.73
2019-03-20T16:03:31.122Z,19.30
2019-03-20T16:06:01.075Z,26.27
2019-03-20T16:08:31.129Z,25.10
2019-03-20T16:11:06.673Z,22.47
2019-03-20T16:13:32.855Z,14.27
2019-03-20T16:16:02.938Z,16.77
2019-03-20T16:18:32.974Z,28.70
2019-03-20T16:21:02.968Z,11.90
2019-03-20T16:23:32.995Z,24.93
2019-03-20T16:26:03.040Z,18.17
2019-03-20T16:28:33.083Z,41.57
2019-03-20T16:31:03.121Z,24.07
2019-03-20T16:33:33.075Z,19.00
2019-03-20T16:36:03.224Z,16.37
2019-03-20T16:38:33.948Z,13.63
2019-03-20T16:41:04.023Z,13.30
2019-03-20T16:43:33.974Z,23.27
2019-03-20T16:46:04.421Z,27.43
2019-03-20T16:48:34.377Z,31.83
2019-03-20T16:51:04.594Z,16.93
2019-03-20T16:53:34.828Z,20.17
2019-03-20T16:56:05.188Z,23.13
2019-03-20T16:58:35.799Z,37.17
2019-03-20T17:01:06.093Z,13.90
2019-03-20T17:03:37.796Z,34.77
2019-03-20T17:06:07.878Z,25.33
2019-03-20T17:08:37.908Z,29.10
2019-03-20T17:11:08.439Z,25.27
2019-03-20T17:13:38.403Z,31.80
2019-03-20T17:16:08.883Z,14.33
2019-03-20T17:18:39.036Z,24.07
2019-03-20T17:21:09.124Z,33.47
2019-03-20T17:23:39.155Z,27.27
2019-03-20T17:26:09.141Z,37.83
2019-03-20T17:28:39.245Z,12.37
2019-03-20T17:31:09.205Z,22.93
2019-03-20T17:33:39.416Z,17.63
2019-03-20T17:36:09.482Z,15.03
2019-03-20T17:38:39.488Z,18.47
2019-03-20T17:41:09.669Z,5.80
2019-03-20T17:43:39.666Z,9.73
2019-03-20T17:46:09.925Z,18.60
2019-03-20T17:48:39.928Z,7.50
2019-03-20T17:51:09.973Z,14.10
2019-03-20T17:53:39.965Z,11.47
2019-03-20T17:56:10.027Z,12.03
2019-03-20T17:58:39.986Z,12.37
2019-03-20T18:01:10.064Z,12.97
2019-03-20T18:03:40.153Z,13.00
2019-03-20T18:06:10.164Z,22.30
2019-03-20T18:08:40.176Z,12.23
2019-03-20T18:11:10.168Z,23.50
2019-03-20T18:13:40.205Z,15.23
2019-03-20T18:16:10.249Z,12.87
2019-03-20T18:18:40.257Z,14.83
2019-03-20T18:21:10.225Z,11.80
2019-03-20T18:23:40.265Z,7.20
2019-03-20T18:26:10.356Z,17.97
2019-03-20T18:28:40.480Z,13.40
2019-03-20T18:31:10.552Z,12.83
2019-03-20T18:33:40.622Z,9.43
2019-03-20T18:36:10.588Z,10.97
2019-03-20T18:38:40.560Z,4.63
2019-03-20T18:41:11.040Z,4.93
2019-03-20T18:43:41.205Z,16.90
2019-03-20T18:46:11.279Z,11.90
2019-03-20T18:48:41.248Z,13.40
2019-03-20T18:51:11.230Z,5.77
2019-03-20T18:53:41.642Z,8.63
2019-03-20T18:56:12.319Z,13.33
2019-03-20T18:58:42.293Z,12.43
2019-03-20T19:01:12.344Z,7.80
2019-03-20T19:03:44.469Z,7.00
2019-03-20T19:06:18.525Z,9.27
2019-03-20T19:08:48.544Z,4.40
2019-03-20T19:11:18.528Z,4.70
2019-03-20T19:13:48.880Z,7.30
2019-03-20T19:16:19.111Z,13.53
2019-03-20T19:18:49.470Z,15.10
2019-03-20T19:21:19.478Z,5.10
2019-03-20T19:23:50.372Z,8.50
2019-03-20T19:26:21.257Z,10.80
2019-03-20T19:28:51.266Z,55.93
2019-03-20T19:31:21.329Z,10.23
2019-03-20T19:33:51.538Z,41.97
2019-03-20T19:36:22.139Z,66.97
2019-03-20T19:38:52.419Z,56.67
2019-03-20T19:41:22.736Z,21.77
2019-03-20T19:43:53.027Z,6.20
2019-03-20T19:46:23.319Z,16.50
2019-03-20T19:48:53.346Z,17.30
2019-03-20T19:51:23.354Z,11.70
2019-03-20T19:53:53.381Z,12.63
2019-03-20T19:56:23.897Z,80.40
2019-03-20T19:58:54.001Z,49.17
2019-03-20T20:01:24.012Z,51.23
2019-03-20T20:03:53.987Z,41.60
2019-03-20T20:06:23.992Z,47.27
2019-03-20T20:08:54.076Z,31.53
2019-03-20T20:11:24.270Z,18.23
2019-03-20T20:13:54.561Z,6.37
2019-03-20T20:16:24.704Z,6.10
2019-03-20T20:18:54.658Z,10.53
2019-03-20T20:21:25.052Z,10.23
2019-03-20T20:23:55.390Z,3.83
2019-03-20T20:26:25.344Z,13.60
2019-03-20T20:28:55.384Z,9.83
2019-03-20T20:31:25.392Z,52.43
2019-03-20T20:33:56.911Z,15.10
2019-03-20T20:36:27.004Z,10.63
2019-03-20T20:38:57.091Z,11.43
2019-03-20T20:41:27.685Z,21.60
2019-03-20T20:43:57.746Z,24.23
2019-03-20T20:46:28.479Z,29.43
2019-03-20T20:48:58.461Z,41.77
2019-03-20T20:51:28.969Z,17.53
2019-03-20T20:53:59.265Z,25.17
2019-03-20T20:56:29.530Z,38.87
2019-03-20T20:58:59.501Z,19.67
2019-03-20T21:01:30.292Z,9.93
2019-03-20T21:04:00.533Z,28.53
2019-03-20T21:06:30.682Z,69.27
2019-03-20T21:09:00.666Z,66.93
2019-03-20T21:11:30.739Z,65.00
2019-03-20T21:14:01.065Z,92.87
2019-03-20T21:16:31.814Z,83.03
2019-03-20T21:19:34.981Z,67.40
2019-03-20T21:22:37.988Z,40.00
2019-03-20T21:25:08.624Z,63.60
2019-03-20T21:28:29.437Z,98.03
2019-03-20T21:31:23.006Z,102.67
2019-03-20T21:34:34.064Z,38.77
2019-03-20T21:37:42.956Z,31.77
2019-03-20T21:40:16.040Z,41.50
2019-03-20T21:43:21.499Z,28.13
2019-03-20T21:46:28.105Z,7.90
2019-03-20T21:48:58.724Z,9.43
2019-03-20T21:51:29.404Z,9.93
2019-03-20T21:54:37.417Z,10.63
2019-03-20T21:57:43.946Z,11.90
2019-03-20T22:00:49.243Z,22.70
2019-03-20T22:03:19.965Z,22.80
2019-03-20T22:06:43.044Z,17.47
2019-03-20T22:09:47.390Z,30.63
2019-03-20T22:12:28.034Z,16.37
2019-03-20T22:15:20.027Z,36.53
2019-03-20T22:18:34.923Z,54.50
2019-03-20T22:21:32.710Z,21.07
2019-03-20T22:24:30.896Z,10.80
2019-03-20T22:27:51.802Z,48.43
2019-03-20T22:30:22.414Z,38.27
2019-03-20T22:33:27.273Z,127.00
2019-03-20T22:36:24.984Z,47.20
2019-03-20T22:39:40.525Z,13.13
2019-03-20T22:42:21.715Z,11.73
2019-03-20T22:45:14.285Z,10.67
2019-03-20T22:48:39.604Z,8.43
2019-03-20T22:51:53.248Z,11.10
2019-03-20T22:55:20.178Z,9.70
2019-03-20T22:58:36.797Z,8.10
2019-03-20T23:01:07.358Z,6.47
2019-03-20T23:03:42.125Z,75.97
2019-03-20T23:06:13.026Z,26.57
2019-03-20T23:08:43.597Z,22.53
2019-03-20T23:11:14.142Z,23.80
2019-03-20T23:13:44.692Z,13.80
2019-03-20T23:16:16.677Z,8.90
2019-03-20T23:18:47.585Z,9.93
2019-03-20T23:21:18.112Z,17.80
2019-03-20T23:23:49.425Z,17.60
2019-03-20T23:26:19.968Z,17.30
2019-03-20T23:28:50.560Z,22.60
2019-03-20T23:31:21.105Z,53.20
2019-03-20T23:33:51.942Z,19.37
2019-03-20T23:36:22.494Z,36.70
2019-03-20T23:38:53.348Z,57.40
2019-03-20T23:41:23.868Z,22.97
2019-03-20T23:43:54.446Z,9.53
2019-03-20T23:46:25.073Z,17.40
2019-03-20T23:49:02.114Z,22.83
2019-03-20T23:51:32.768Z,7.70
2019-03-20T23:54:03.258Z,25.77
2019-03-20T23:56:35.232Z,12.40
2019-03-20T23:59:06.005Z,11.33
